sensor_id;sensor_type;location;lat;lon;timestamp;P1;durP1;ratioP1;P2;durP2;ratioP2
10059;SDS011;5069;49.306;8.636;2022-08-21T00:02:15;5.07;;;2.53;;
10059;SDS011;5069;49.306;8.636;2022-08-21T00:05:18;8.47;;;3.50;;
10059;SDS011;5069;49.306;8.636;2022-08-21T00:08:20;3.43;;;3.10;;
10059;SDS011;5069;49.306;8.636;2022-08-21T00:11:22;3.83;;;2.87;;
10059;SDS011;5069;49.306;8.636;2022-08-21T00:14:24;3.97;;;3.07;;
10059;SDS011;5069;49.306;8.636;2022-08-21T00:17:26;6.60;;;3.13;;
10059;SDS011;5069;49.306;8.636;2022-08-21T00:20:27;3.93;;;3.00;;
10059;SDS011;5069;49.306;8.636;2022-08-21T00:23:29;6.60;;;3.27;;
10059;SDS011;5069;49.306;8.636;2022-08-21T00:26:31;4.00;;;2.90;;
10059;SDS011;5069;49.306;8.636;2022-08-21T00:29:33;6.30;;;3.27;;
10059;SDS011;5069;49.306;8.636;2022-08-21T00:32:35;5.00;;;3.20;;
10059;SDS011;5069;49.306;8.636;2022-08-21T00:35:39;4.47;;;2.93;;
10059;SDS011;5069;49.306;8.636;2022-08-21T00:38:42;4.13;;;3.37;;
10059;SDS011;5069;49.306;8.636;2022-08-21T00:41:44;5.63;;;3.10;;
10059;SDS011;5069;49.306;8.636;2022-08-21T00:44:47;4.00;;;2.80;;
10059;SDS011;5069;49.306;8.636;2022-08-21T00:47:50;5.00;;;3.50;;
10059;SDS011;5069;49.306;8.636;2022-08-21T00:51:04;3.60;;;2.80;;
10059;SDS011;5069;49.306;8.636;2022-08-21T00:54:09;3.60;;;3.10;;
10059;SDS011;5069;49.306;8.636;2022-08-21T00:57:21;4.43;;;2.97;;
10059;SDS011;5069;49.306;8.636;2022-08-21T01:00:29;6.10;;;3.37;;
10059;SDS011;5069;49.306;8.636;2022-08-21T01:03:33;4.37;;;3.10;;
10059;SDS011;5069;49.306;8.636;2022-08-21T01:06:36;5.73;;;3.20;;
10059;SDS011;5069;49.306;8.636;2022-08-21T01:09:39;4.73;;;2.97;;
10059;SDS011;5069;49.306;8.636;2022-08-21T01:12:41;4.77;;;3.30;;
10059;SDS011;5069;49.306;8.636;2022-08-21T01:15:45;7.23;;;3.23;;
10059;SDS011;5069;49.306;8.636;2022-08-21T01:18:50;7.67;;;3.47;;
10059;SDS011;5069;49.306;8.636;2022-08-21T01:21:52;5.90;;;3.30;;
10059;SDS011;5069;49.306;8.636;2022-08-21T01:24:54;5.67;;;3.43;;
10059;SDS011;5069;49.306;8.636;2022-08-21T01:27:56;6.93;;;3.70;;
10059;SDS011;5069;49.306;8.636;2022-08-21T01:31:00;8.57;;;3.73;;
10059;SDS011;5069;49.306;8.636;2022-08-21T01:34:04;4.90;;;3.37;;
10059;SDS011;5069;49.306;8.636;2022-08-21T01:37:05;5.80;;;3.97;;
10059;SDS011;5069;49.306;8.636;2022-08-21T01:40:07;7.43;;;3.57;;
10059;SDS011;5069;49.306;8.636;2022-08-21T01:43:10;6.97;;;3.73;;
10059;SDS011;5069;49.306;8.636;2022-08-21T01:46:11;10.73;;;4.20;;
10059;SDS011;5069;49.306;8.636;2022-08-21T01:49:14;4.23;;;3.60;;
10059;SDS011;5069;49.306;8.636;2022-08-21T01:52:16;4.07;;;3.60;;
10059;SDS011;5069;49.306;8.636;2022-08-21T01:55:18;7.10;;;3.90;;
10059;SDS011;5069;49.306;8.636;2022-08-21T01:58:21;5.37;;;3.20;;
10059;SDS011;5069;49.306;8.636;2022-08-21T02:01:22;5.03;;;3.60;;
10059;SDS011;5069;49.306;8.636;2022-08-21T02:04:24;5.17;;;3.60;;
10059;SDS011;5069;49.306;8.636;2022-08-21T02:07:26;5.53;;;3.80;;
10059;SDS011;5069;49.306;8.636;2022-08-21T02:10:29;4.57;;;3.10;;
10059;SDS011;5069;49.306;8.636;2022-08-21T02:13:32;7.10;;;3.77;;
10059;SDS011;5069;49.306;8.636;2022-08-21T02:16:33;7.57;;;3.50;;
10059;SDS011;5069;49.306;8.636;2022-08-21T02:19:37;5.27;;;3.03;;
10059;SDS011;5069;49.306;8.636;2022-08-21T02:22:41;4.40;;;3.50;;
10059;SDS011;5069;49.306;8.636;2022-08-21T02:25:42;6.33;;;3.67;;
10059;SDS011;5069;49.306;8.636;2022-08-21T02:28:44;6.87;;;3.50;;
10059;SDS011;5069;49.306;8.636;2022-08-21T02:31:45;4.40;;;3.10;;
10059;SDS011;5069;49.306;8.636;2022-08-21T02:34:47;3.70;;;2.60;;
10059;SDS011;5069;49.306;8.636;2022-08-21T02:37:50;5.87;;;3.10;;
10059;SDS011;5069;49.306;8.636;2022-08-21T02:40:56;6.03;;;3.30;;
10059;SDS011;5069;49.306;8.636;2022-08-21T02:43:58;5.03;;;3.00;;
10059;SDS011;5069;49.306;8.636;2022-08-21T02:46:59;3.10;;;2.80;;
10059;SDS011;5069;49.306;8.636;2022-08-21T02:50:01;7.50;;;2.97;;
10059;SDS011;5069;49.306;8.636;2022-08-21T02:53:04;6.47;;;3.17;;
10059;SDS011;5069;49.306;8.636;2022-08-21T02:56:08;5.70;;;3.13;;
10059;SDS011;5069;49.306;8.636;2022-08-21T02:59:11;4.73;;;3.10;;
10059;SDS011;5069;49.306;8.636;2022-08-21T03:02:13;4.43;;;2.80;;
10059;SDS011;5069;49.306;8.636;2022-08-21T03:05:16;4.87;;;3.30;;
10059;SDS011;5069;49.306;8.636;2022-08-21T03:08:18;3.90;;;3.07;;
10059;SDS011;5069;49.306;8.636;2022-08-21T03:11:21;3.27;;;2.73;;
10059;SDS011;5069;49.306;8.636;2022-08-21T03:14:22;5.77;;;2.70;;
10059;SDS011;5069;49.306;8.636;2022-08-21T03:17:24;4.07;;;2.90;;
10059;SDS011;5069;49.306;8.636;2022-08-21T03:20:30;4.70;;;2.70;;
10059;SDS011;5069;49.306;8.636;2022-08-21T03:23:33;3.87;;;2.73;;
10059;SDS011;5069;49.306;8.636;2022-08-21T03:26:35;3.57;;;2.93;;
10059;SDS011;5069;49.306;8.636;2022-08-21T03:29:40;3.87;;;3.10;;
10059;SDS011;5069;49.306;8.636;2022-08-21T03:32:42;4.67;;;3.10;;
10059;SDS011;5069;49.306;8.636;2022-08-21T03:35:44;6.27;;;3.00;;
10059;SDS011;5069;49.306;8.636;2022-08-21T03:38:48;3.80;;;3.20;;
10059;SDS011;5069;49.306;8.636;2022-08-21T03:41:49;3.87;;;3.00;;
10059;SDS011;5069;49.306;8.636;2022-08-21T03:44:51;4.53;;;2.90;;
10059;SDS011;5069;49.306;8.636;2022-08-21T03:48:00;5.33;;;3.50;;
10059;SDS011;5069;49.306;8.636;2022-08-21T03:51:03;6.57;;;3.43;;
10059;SDS011;5069;49.306;8.636;2022-08-21T03:54:04;4.63;;;3.20;;
10059;SDS011;5069;49.306;8.636;2022-08-21T03:57:06;5.47;;;3.10;;
10059;SDS011;5069;49.306;8.636;2022-08-21T04:00:09;5.17;;;3.30;;
10059;SDS011;5069;49.306;8.636;2022-08-21T04:03:13;3.80;;;3.10;;
10059;SDS011;5069;49.306;8.636;2022-08-21T04:06:14;7.00;;;3.60;;
10059;SDS011;5069;49.306;8.636;2022-08-21T04:09:16;5.23;;;3.27;;
10059;SDS011;5069;49.306;8.636;2022-08-21T04:12:20;4.37;;;2.93;;
10059;SDS011;5069;49.306;8.636;2022-08-21T04:15:23;4.73;;;3.20;;
10059;SDS011;5069;49.306;8.636;2022-08-21T04:18:26;7.30;;;3.40;;
10059;SDS011;5069;49.306;8.636;2022-08-21T04:21:27;5.50;;;3.40;;
10059;SDS011;5069;49.306;8.636;2022-08-21T04:24:29;5.57;;;3.80;;
10059;SDS011;5069;49.306;8.636;2022-08-21T04:27:30;6.70;;;4.00;;
10059;SDS011;5069;49.306;8.636;2022-08-21T04:30:32;5.80;;;3.37;;
10059;SDS011;5069;49.306;8.636;2022-08-21T04:33:34;4.67;;;3.00;;
10059;SDS011;5069;49.306;8.636;2022-08-21T04:36:35;3.93;;;3.23;;
10059;SDS011;5069;49.306;8.636;2022-08-21T04:39:37;5.23;;;3.30;;
10059;SDS011;5069;49.306;8.636;2022-08-21T04:42:43;5.40;;;3.30;;
10059;SDS011;5069;49.306;8.636;2022-08-21T04:46:05;4.80;;;3.57;;
10059;SDS011;5069;49.306;8.636;2022-08-21T04:49:07;4.00;;;3.23;;
10059;SDS011;5069;49.306;8.636;2022-08-21T04:52:08;3.93;;;2.80;;
10059;SDS011;5069;49.306;8.636;2022-08-21T04:55:11;5.20;;;3.27;;
10059;SDS011;5069;49.306;8.636;2022-08-21T04:58:14;3.93;;;3.37;;
10059;SDS011;5069;49.306;8.636;2022-08-21T05:01:19;3.90;;;3.03;;
10059;SDS011;5069;49.306;8.636;2022-08-21T05:04:23;5.13;;;3.60;;
10059;SDS011;5069;49.306;8.636;2022-08-21T05:07:28;4.07;;;3.07;;
10059;SDS011;5069;49.306;8.636;2022-08-21T05:10:43;3.33;;;2.93;;
10059;SDS011;5069;49.306;8.636;2022-08-21T05:13:45;4.70;;;3.20;;
10059;SDS011;5069;49.306;8.636;2022-08-21T05:16:55;5.03;;;2.93;;
10059;SDS011;5069;49.306;8.636;2022-08-21T05:19:56;5.37;;;3.57;;
10059;SDS011;5069;49.306;8.636;2022-08-21T05:22:58;4.73;;;3.00;;
10059;SDS011;5069;49.306;8.636;2022-08-21T05:26:00;6.33;;;3.30;;
10059;SDS011;5069;49.306;8.636;2022-08-21T05:29:02;5.27;;;3.13;;
10059;SDS011;5069;49.306;8.636;2022-08-21T05:32:11;6.10;;;3.10;;
10059;SDS011;5069;49.306;8.636;2022-08-21T05:35:13;3.53;;;3.20;;
10059;SDS011;5069;49.306;8.636;2022-08-21T05:38:15;5.93;;;3.60;;
10059;SDS011;5069;49.306;8.636;2022-08-21T05:41:18;4.53;;;3.30;;
10059;SDS011;5069;49.306;8.636;2022-08-21T05:44:20;5.00;;;3.33;;
10059;SDS011;5069;49.306;8.636;2022-08-21T05:47:22;6.43;;;3.40;;
10059;SDS011;5069;49.306;8.636;2022-08-21T05:50:24;5.53;;;3.40;;
10059;SDS011;5069;49.306;8.636;2022-08-21T05:53:33;8.40;;;3.60;;
10059;SDS011;5069;49.306;8.636;2022-08-21T05:56:34;6.27;;;3.33;;
10059;SDS011;5069;49.306;8.636;2022-08-21T05:59:36;7.57;;;3.70;;
10059;SDS011;5069;49.306;8.636;2022-08-21T06:02:39;6.13;;;3.30;;
10059;SDS011;5069;49.306;8.636;2022-08-21T06:05:42;7.00;;;3.50;;
10059;SDS011;5069;49.306;8.636;2022-08-21T06:08:43;5.50;;;3.20;;
10059;SDS011;5069;49.306;8.636;2022-08-21T06:11:45;6.47;;;3.63;;
10059;SDS011;5069;49.306;8.636;2022-08-21T06:14:47;5.20;;;3.87;;
10059;SDS011;5069;49.306;8.636;2022-08-21T06:17:48;3.83;;;2.83;;
10059;SDS011;5069;49.306;8.636;2022-08-21T06:20:50;7.27;;;3.57;;
10059;SDS011;5069;49.306;8.636;2022-08-21T06:23:51;8.37;;;3.83;;
10059;SDS011;5069;49.306;8.636;2022-08-21T06:26:53;8.70;;;3.70;;
10059;SDS011;5069;49.306;8.636;2022-08-21T06:29:55;5.80;;;3.43;;
10059;SDS011;5069;49.306;8.636;2022-08-21T06:32:58;6.10;;;3.90;;
10059;SDS011;5069;49.306;8.636;2022-08-21T06:36:00;5.70;;;3.77;;
10059;SDS011;5069;49.306;8.636;2022-08-21T06:39:02;5.67;;;3.70;;
10059;SDS011;5069;49.306;8.636;2022-08-21T06:42:24;6.70;;;3.70;;
10059;SDS011;5069;49.306;8.636;2022-08-21T06:45:28;10.30;;;3.97;;
10059;SDS011;5069;49.306;8.636;2022-08-21T06:48:32;7.27;;;3.70;;
10059;SDS011;5069;49.306;8.636;2022-08-21T06:51:35;5.40;;;3.97;;
10059;SDS011;5069;49.306;8.636;2022-08-21T06:54:36;7.47;;;4.20;;
10059;SDS011;5069;49.306;8.636;2022-08-21T06:57:38;5.37;;;3.67;;
10059;SDS011;5069;49.306;8.636;2022-08-21T07:00:48;9.10;;;3.90;;
10059;SDS011;5069;49.306;8.636;2022-08-21T07:03:52;6.47;;;3.50;;
10059;SDS011;5069;49.306;8.636;2022-08-21T07:06:54;6.73;;;3.60;;
10059;SDS011;5069;49.306;8.636;2022-08-21T07:09:55;7.57;;;3.90;;
10059;SDS011;5069;49.306;8.636;2022-08-21T07:12:57;6.03;;;3.80;;
10059;SDS011;5069;49.306;8.636;2022-08-21T07:16:01;5.73;;;3.47;;
10059;SDS011;5069;49.306;8.636;2022-08-21T07:19:04;8.30;;;4.10;;
10059;SDS011;5069;49.306;8.636;2022-08-21T07:22:06;6.63;;;3.80;;
10059;SDS011;5069;49.306;8.636;2022-08-21T07:25:08;6.13;;;3.80;;
10059;SDS011;5069;49.306;8.636;2022-08-21T07:28:10;7.37;;;3.70;;
10059;SDS011;5069;49.306;8.636;2022-08-21T07:31:13;5.53;;;3.77;;
10059;SDS011;5069;49.306;8.636;2022-08-21T07:34:15;8.60;;;4.03;;
10059;SDS011;5069;49.306;8.636;2022-08-21T07:37:17;8.00;;;3.70;;
10059;SDS011;5069;49.306;8.636;2022-08-21T07:40:20;6.63;;;3.70;;
10059;SDS011;5069;49.306;8.636;2022-08-21T07:43:22;8.70;;;3.93;;
10059;SDS011;5069;49.306;8.636;2022-08-21T07:46:24;7.27;;;3.90;;
10059;SDS011;5069;49.306;8.636;2022-08-21T07:49:26;7.10;;;3.70;;
10059;SDS011;5069;49.306;8.636;2022-08-21T07:52:28;10.27;;;4.03;;
10059;SDS011;5069;49.306;8.636;2022-08-21T07:55:32;8.67;;;3.80;;
10059;SDS011;5069;49.306;8.636;2022-08-21T07:58:33;7.97;;;3.77;;
10059;SDS011;5069;49.306;8.636;2022-08-21T08:01:35;9.10;;;3.80;;
10059;SDS011;5069;49.306;8.636;2022-08-21T08:04:36;4.73;;;3.80;;
10059;SDS011;5069;49.306;8.636;2022-08-21T08:07:51;9.93;;;3.87;;
10059;SDS011;5069;49.306;8.636;2022-08-21T08:10:53;6.43;;;3.37;;
10059;SDS011;5069;49.306;8.636;2022-08-21T08:13:57;9.80;;;3.80;;
10059;SDS011;5069;49.306;8.636;2022-08-21T08:17:00;6.73;;;3.47;;
10059;SDS011;5069;49.306;8.636;2022-08-21T08:20:04;9.53;;;3.90;;
10059;SDS011;5069;49.306;8.636;2022-08-21T08:23:10;7.47;;;3.87;;
10059;SDS011;5069;49.306;8.636;2022-08-21T08:26:12;10.20;;;4.07;;
10059;SDS011;5069;49.306;8.636;2022-08-21T08:29:15;7.80;;;3.97;;
10059;SDS011;5069;49.306;8.636;2022-08-21T08:32:17;7.33;;;4.23;;
10059;SDS011;5069;49.306;8.636;2022-08-21T08:35:19;10.17;;;4.20;;
10059;SDS011;5069;49.306;8.636;2022-08-21T08:38:25;6.53;;;4.20;;
10059;SDS011;5069;49.306;8.636;2022-08-21T08:41:26;8.47;;;4.37;;
10059;SDS011;5069;49.306;8.636;2022-08-21T08:44:31;6.77;;;4.17;;
10059;SDS011;5069;49.306;8.636;2022-08-21T08:47:34;11.63;;;5.27;;
10059;SDS011;5069;49.306;8.636;2022-08-21T08:50:44;10.03;;;4.57;;
10059;SDS011;5069;49.306;8.636;2022-08-21T08:53:51;5.80;;;4.23;;
10059;SDS011;5069;49.306;8.636;2022-08-21T08:57:00;6.67;;;4.20;;
10059;SDS011;5069;49.306;8.636;2022-08-21T09:00:05;9.83;;;4.70;;
10059;SDS011;5069;49.306;8.636;2022-08-21T09:03:11;9.67;;;4.30;;
10059;SDS011;5069;49.306;8.636;2022-08-21T09:06:17;7.57;;;3.90;;
10059;SDS011;5069;49.306;8.636;2022-08-21T09:09:50;8.87;;;4.07;;
10059;SDS011;5069;49.306;8.636;2022-08-21T09:13:03;7.77;;;3.80;;
10059;SDS011;5069;49.306;8.636;2022-08-21T09:16:29;7.30;;;3.43;;
10059;SDS011;5069;49.306;8.636;2022-08-21T09:30:07;6.47;;;3.80;;
10059;SDS011;5069;49.306;8.636;2022-08-21T09:33:11;6.07;;;3.73;;
10059;SDS011;5069;49.306;8.636;2022-08-21T09:36:22;8.47;;;3.73;;
10059;SDS011;5069;49.306;8.636;2022-08-21T09:42:31;5.87;;;3.37;;
10059;SDS011;5069;49.306;8.636;2022-08-21T09:45:33;8.60;;;4.40;;
10059;SDS011;5069;49.306;8.636;2022-08-21T09:48:40;7.03;;;3.75;;
10059;SDS011;5069;49.306;8.636;2022-08-21T09:51:50;9.15;;;3.97;;
10059;SDS011;5069;49.306;8.636;2022-08-21T09:54:54;6.33;;;3.40;;
10059;SDS011;5069;49.306;8.636;2022-08-21T09:57:57;7.82;;;3.25;;
10059;SDS011;5069;49.306;8.636;2022-08-21T10:00:59;5.05;;;3.47;;
10059;SDS011;5069;49.306;8.636;2022-08-21T10:04:07;8.55;;;4.00;;
10059;SDS011;5069;49.306;8.636;2022-08-21T10:07:10;7.30;;;3.90;;
10059;SDS011;5069;49.306;8.636;2022-08-21T10:10:18;6.80;;;3.45;;
10059;SDS011;5069;49.306;8.636;2022-08-21T10:23:28;8.45;;;3.67;;
10059;SDS011;5069;49.306;8.636;2022-08-21T10:36:25;6.60;;;3.35;;
10059;SDS011;5069;49.306;8.636;2022-08-21T10:39:40;8.48;;;3.60;;
10059;SDS011;5069;49.306;8.636;2022-08-21T10:46:56;6.60;;;3.17;;
10059;SDS011;5069;49.306;8.636;2022-08-21T10:56:42;8.52;;;2.97;;
10059;SDS011;5069;49.306;8.636;2022-08-21T10:59:54;7.07;;;3.40;;
10059;SDS011;5069;49.306;8.636;2022-08-21T11:06:07;6.57;;;3.50;;
10059;SDS011;5069;49.306;8.636;2022-08-21T11:09:15;5.38;;;3.35;;
10059;SDS011;5069;49.306;8.636;2022-08-21T11:15:33;5.18;;;3.13;;
10059;SDS011;5069;49.306;8.636;2022-08-21T11:18:50;5.03;;;2.83;;
10059;SDS011;5069;49.306;8.636;2022-08-21T11:22:06;4.85;;;2.90;;
10059;SDS011;5069;49.306;8.636;2022-08-21T11:25:21;4.10;;;2.80;;
10059;SDS011;5069;49.306;8.636;2022-08-21T11:28:39;9.90;;;3.13;;
10059;SDS011;5069;49.306;8.636;2022-08-21T11:31:51;5.38;;;2.80;;
10059;SDS011;5069;49.306;8.636;2022-08-21T11:35:30;7.88;;;3.15;;
10059;SDS011;5069;49.306;8.636;2022-08-21T11:45:39;7.03;;;2.95;;
10059;SDS011;5069;49.306;8.636;2022-08-21T11:48:53;4.75;;;3.00;;
10059;SDS011;5069;49.306;8.636;2022-08-21T11:55:18;4.32;;;2.63;;
10059;SDS011;5069;49.306;8.636;2022-08-21T11:58:38;5.07;;;2.72;;
10059;SDS011;5069;49.306;8.636;2022-08-21T12:01:44;6.43;;;2.78;;
10059;SDS011;5069;49.306;8.636;2022-08-21T12:05:00;5.30;;;2.80;;
10059;SDS011;5069;49.306;8.636;2022-08-21T12:14:18;5.30;;;2.58;;
10059;SDS011;5069;49.306;8.636;2022-08-21T12:17:20;4.72;;;2.63;;
10059;SDS011;5069;49.306;8.636;2022-08-21T12:20:44;5.68;;;2.63;;
10059;SDS011;5069;49.306;8.636;2022-08-21T12:24:05;5.60;;;2.75;;
10059;SDS011;5069;49.306;8.636;2022-08-21T12:30:35;5.20;;;2.60;;
10059;SDS011;5069;49.306;8.636;2022-08-21T12:33:39;5.88;;;2.58;;
10059;SDS011;5069;49.306;8.636;2022-08-21T12:36:43;3.67;;;2.80;;
10059;SDS011;5069;49.306;8.636;2022-08-21T12:39:49;3.85;;;2.38;;
10059;SDS011;5069;49.306;8.636;2022-08-21T12:42:54;4.50;;;2.40;;
10059;SDS011;5069;49.306;8.636;2022-08-21T12:45:59;3.90;;;2.33;;
10059;SDS011;5069;49.306;8.636;2022-08-21T12:49:06;4.05;;;2.17;;
10059;SDS011;5069;49.306;8.636;2022-08-21T12:52:19;3.38;;;2.65;;
10059;SDS011;5069;49.306;8.636;2022-08-21T12:55:28;4.13;;;2.33;;
10059;SDS011;5069;49.306;8.636;2022-08-21T12:58:32;3.30;;;2.65;;
10059;SDS011;5069;49.306;8.636;2022-08-21T13:01:47;4.03;;;2.35;;
10059;SDS011;5069;49.306;8.636;2022-08-21T13:04:52;3.50;;;2.30;;
10059;SDS011;5069;49.306;8.636;2022-08-21T13:07:56;5.07;;;2.38;;
10059;SDS011;5069;49.306;8.636;2022-08-21T13:11:05;5.10;;;2.42;;
10059;SDS011;5069;49.306;8.636;2022-08-21T13:14:24;4.72;;;2.53;;
10059;SDS011;5069;49.306;8.636;2022-08-21T13:17:31;3.72;;;2.15;;
10059;SDS011;5069;49.306;8.636;2022-08-21T13:20:39;3.75;;;2.22;;
10059;SDS011;5069;49.306;8.636;2022-08-21T13:23:44;4.20;;;2.55;;
10059;SDS011;5069;49.306;8.636;2022-08-21T13:26:49;4.75;;;2.40;;
10059;SDS011;5069;49.306;8.636;2022-08-21T13:33:24;2.80;;;2.17;;
10059;SDS011;5069;49.306;8.636;2022-08-21T13:36:39;5.88;;;2.60;;
10059;SDS011;5069;49.306;8.636;2022-08-21T13:39:47;4.40;;;2.25;;
10059;SDS011;5069;49.306;8.636;2022-08-21T13:42:50;4.82;;;2.50;;
10059;SDS011;5069;49.306;8.636;2022-08-21T13:45:54;4.28;;;2.63;;
10059;SDS011;5069;49.306;8.636;2022-08-21T13:48:57;2.60;;;2.35;;
10059;SDS011;5069;49.306;8.636;2022-08-21T13:52:00;3.92;;;2.20;;
10059;SDS011;5069;49.306;8.636;2022-08-21T13:55:11;3.53;;;2.22;;
10059;SDS011;5069;49.306;8.636;2022-08-21T13:58:23;3.38;;;2.13;;
10059;SDS011;5069;49.306;8.636;2022-08-21T14:01:31;5.15;;;2.20;;
10059;SDS011;5069;49.306;8.636;2022-08-21T14:04:39;3.63;;;2.40;;
10059;SDS011;5069;49.306;8.636;2022-08-21T14:07:58;3.80;;;2.40;;
10059;SDS011;5069;49.306;8.636;2022-08-21T14:11:20;2.97;;;2.25;;
10059;SDS011;5069;49.306;8.636;2022-08-21T14:14:24;3.67;;;2.10;;
10059;SDS011;5069;49.306;8.636;2022-08-21T14:17:36;3.08;;;2.20;;
10059;SDS011;5069;49.306;8.636;2022-08-21T14:20:43;4.97;;;2.45;;
10059;SDS011;5069;49.306;8.636;2022-08-21T14:23:46;3.60;;;2.22;;
10059;SDS011;5069;49.306;8.636;2022-08-21T14:26:55;3.30;;;2.25;;
10059;SDS011;5069;49.306;8.636;2022-08-21T14:30:01;5.22;;;2.05;;
10059;SDS011;5069;49.306;8.636;2022-08-21T14:33:18;3.25;;;2.30;;
10059;SDS011;5069;49.306;8.636;2022-08-21T14:36:26;4.07;;;2.30;;
10059;SDS011;5069;49.306;8.636;2022-08-21T14:39:28;3.88;;;2.63;;
10059;SDS011;5069;49.306;8.636;2022-08-21T14:42:29;3.40;;;2.45;;
10059;SDS011;5069;49.306;8.636;2022-08-21T14:45:31;4.20;;;2.25;;
10059;SDS011;5069;49.306;8.636;2022-08-21T14:48:32;3.20;;;2.40;;
10059;SDS011;5069;49.306;8.636;2022-08-21T14:51:34;4.00;;;2.30;;
10059;SDS011;5069;49.306;8.636;2022-08-21T14:54:35;3.47;;;2.35;;
10059;SDS011;5069;49.306;8.636;2022-08-21T14:57:37;3.03;;;2.17;;
10059;SDS011;5069;49.306;8.636;2022-08-21T15:00:39;4.75;;;2.40;;
10059;SDS011;5069;49.306;8.636;2022-08-21T15:03:41;3.92;;;2.70;;
10059;SDS011;5069;49.306;8.636;2022-08-21T15:06:42;3.25;;;2.53;;
10059;SDS011;5069;49.306;8.636;2022-08-21T15:09:44;5.07;;;2.45;;
10059;SDS011;5069;49.306;8.636;2022-08-21T15:12:46;4.75;;;2.60;;
10059;SDS011;5069;49.306;8.636;2022-08-21T15:15:48;3.53;;;2.40;;
10059;SDS011;5069;49.306;8.636;2022-08-21T15:18:53;3.08;;;2.38;;
10059;SDS011;5069;49.306;8.636;2022-08-21T15:21:55;5.15;;;2.75;;
10059;SDS011;5069;49.306;8.636;2022-08-21T15:24:56;4.50;;;2.53;;
10059;SDS011;5069;49.306;8.636;2022-08-21T15:27:58;5.15;;;2.63;;
10059;SDS011;5069;49.306;8.636;2022-08-21T15:31:00;3.95;;;2.40;;
10059;SDS011;5069;49.306;8.636;2022-08-21T15:34:02;6.00;;;3.00;;
10059;SDS011;5069;49.306;8.636;2022-08-21T15:37:04;4.15;;;2.50;;
10059;SDS011;5069;49.306;8.636;2022-08-21T15:40:09;4.22;;;2.60;;
10059;SDS011;5069;49.306;8.636;2022-08-21T15:43:18;4.30;;;2.72;;
10059;SDS011;5069;49.306;8.636;2022-08-21T15:46:30;3.88;;;2.85;;
10059;SDS011;5069;49.306;8.636;2022-08-21T15:49:32;4.95;;;2.58;;
10059;SDS011;5069;49.306;8.636;2022-08-21T15:52:34;4.15;;;2.75;;
10059;SDS011;5069;49.306;8.636;2022-08-21T15:55:36;3.05;;;2.35;;
10059;SDS011;5069;49.306;8.636;2022-08-21T15:58:38;6.22;;;2.92;;
10059;SDS011;5069;49.306;8.636;2022-08-21T16:01:39;5.93;;;4.40;;
10059;SDS011;5069;49.306;8.636;2022-08-21T16:04:45;4.80;;;3.53;;
10059;SDS011;5069;49.306;8.636;2022-08-21T16:07:47;4.70;;;2.85;;
10059;SDS011;5069;49.306;8.636;2022-08-21T16:10:49;5.65;;;2.72;;
10059;SDS011;5069;49.306;8.636;2022-08-21T16:13:53;3.75;;;2.65;;
10059;SDS011;5069;49.306;8.636;2022-08-21T16:16:57;5.60;;;2.90;;
10059;SDS011;5069;49.306;8.636;2022-08-21T16:19:59;4.35;;;2.63;;
10059;SDS011;5069;49.306;8.636;2022-08-21T16:23:04;4.78;;;2.72;;
10059;SDS011;5069;49.306;8.636;2022-08-21T16:26:06;4.22;;;2.75;;
10059;SDS011;5069;49.306;8.636;2022-08-21T16:29:14;4.15;;;2.63;;
10059;SDS011;5069;49.306;8.636;2022-08-21T16:32:16;4.18;;;2.90;;
10059;SDS011;5069;49.306;8.636;2022-08-21T16:35:19;4.45;;;2.80;;
10059;SDS011;5069;49.306;8.636;2022-08-21T16:38:22;5.63;;;3.28;;
10059;SDS011;5069;49.306;8.636;2022-08-21T16:41:25;5.85;;;3.20;;
10059;SDS011;5069;49.306;8.636;2022-08-21T16:44:33;4.57;;;2.92;;
10059;SDS011;5069;49.306;8.636;2022-08-21T16:47:37;6.15;;;2.90;;
10059;SDS011;5069;49.306;8.636;2022-08-21T16:50:39;5.10;;;2.80;;
10059;SDS011;5069;49.306;8.636;2022-08-21T16:53:41;5.35;;;3.15;;
10059;SDS011;5069;49.306;8.636;2022-08-21T16:56:43;5.68;;;3.20;;
10059;SDS011;5069;49.306;8.636;2022-08-21T16:59:48;8.38;;;3.13;;
10059;SDS011;5069;49.306;8.636;2022-08-21T17:02:50;5.70;;;2.90;;
10059;SDS011;5069;49.306;8.636;2022-08-21T17:05:54;5.88;;;2.70;;
10059;SDS011;5069;49.306;8.636;2022-08-21T17:08:56;6.70;;;3.08;;
10059;SDS011;5069;49.306;8.636;2022-08-21T17:11:59;5.25;;;2.65;;
10059;SDS011;5069;49.306;8.636;2022-08-21T17:15:02;5.07;;;2.92;;
10059;SDS011;5069;49.306;8.636;2022-08-21T17:18:10;7.18;;;2.95;;
10059;SDS011;5069;49.306;8.636;2022-08-21T17:21:14;4.35;;;2.83;;
10059;SDS011;5069;49.306;8.636;2022-08-21T17:24:19;5.60;;;2.90;;
10059;SDS011;5069;49.306;8.636;2022-08-21T17:27:21;3.67;;;2.60;;
10059;SDS011;5069;49.306;8.636;2022-08-21T17:30:27;4.15;;;2.60;;
10059;SDS011;5069;49.306;8.636;2022-08-21T17:33:33;6.20;;;3.33;;
10059;SDS011;5069;49.306;8.636;2022-08-21T17:36:39;4.88;;;3.20;;
10059;SDS011;5069;49.306;8.636;2022-08-21T17:39:40;4.28;;;2.90;;
10059;SDS011;5069;49.306;8.636;2022-08-21T17:42:42;6.30;;;3.70;;
10059;SDS011;5069;49.306;8.636;2022-08-21T17:45:45;6.15;;;3.00;;
10059;SDS011;5069;49.306;8.636;2022-08-21T17:48:47;6.75;;;2.92;;
10059;SDS011;5069;49.306;8.636;2022-08-21T17:51:48;5.05;;;3.20;;
10059;SDS011;5069;49.306;8.636;2022-08-21T17:54:50;4.57;;;3.00;;
10059;SDS011;5069;49.306;8.636;2022-08-21T17:57:51;4.78;;;3.00;;
10059;SDS011;5069;49.306;8.636;2022-08-21T18:00:53;5.53;;;3.17;;
10059;SDS011;5069;49.306;8.636;2022-08-21T18:03:55;4.03;;;2.67;;
10059;SDS011;5069;49.306;8.636;2022-08-21T18:06:57;5.18;;;3.47;;
10059;SDS011;5069;49.306;8.636;2022-08-21T18:09:59;5.20;;;3.13;;
10059;SDS011;5069;49.306;8.636;2022-08-21T18:13:02;7.20;;;3.60;;
10059;SDS011;5069;49.306;8.636;2022-08-21T18:16:06;4.88;;;3.33;;
10059;SDS011;5069;49.306;8.636;2022-08-21T18:19:09;7.43;;;3.85;;
10059;SDS011;5069;49.306;8.636;2022-08-21T18:22:15;4.53;;;3.33;;
10059;SDS011;5069;49.306;8.636;2022-08-21T18:25:16;5.60;;;3.60;;
10059;SDS011;5069;49.306;8.636;2022-08-21T18:28:18;4.15;;;3.63;;
10059;SDS011;5069;49.306;8.636;2022-08-21T18:31:20;7.20;;;3.90;;
10059;SDS011;5069;49.306;8.636;2022-08-21T18:34:26;5.80;;;3.78;;
10059;SDS011;5069;49.306;8.636;2022-08-21T18:37:30;8.18;;;4.10;;
10059;SDS011;5069;49.306;8.636;2022-08-21T18:40:32;7.70;;;4.13;;
10059;SDS011;5069;49.306;8.636;2022-08-21T18:43:36;5.72;;;4.22;;
10059;SDS011;5069;49.306;8.636;2022-08-21T18:46:38;6.50;;;3.97;;
10059;SDS011;5069;49.306;8.636;2022-08-21T18:49:40;6.75;;;3.97;;
10059;SDS011;5069;49.306;8.636;2022-08-21T18:52:42;7.57;;;4.60;;
10059;SDS011;5069;49.306;8.636;2022-08-21T18:55:54;7.20;;;4.00;;
10059;SDS011;5069;49.306;8.636;2022-08-21T18:59:15;7.93;;;4.50;;
10059;SDS011;5069;49.306;8.636;2022-08-21T19:02:17;9.43;;;4.68;;
10059;SDS011;5069;49.306;8.636;2022-08-21T19:05:19;7.75;;;5.00;;
10059;SDS011;5069;49.306;8.636;2022-08-21T19:08:23;8.57;;;4.53;;
10059;SDS011;5069;49.306;8.636;2022-08-21T19:11:28;8.00;;;5.20;;
10059;SDS011;5069;49.306;8.636;2022-08-21T19:14:30;8.82;;;4.95;;
10059;SDS011;5069;49.306;8.636;2022-08-21T19:17:33;8.32;;;4.40;;
10059;SDS011;5069;49.306;8.636;2022-08-21T19:20:36;7.28;;;4.55;;
10059;SDS011;5069;49.306;8.636;2022-08-21T19:23:41;7.57;;;4.72;;
10059;SDS011;5069;49.306;8.636;2022-08-21T19:26:44;12.45;;;4.55;;
10059;SDS011;5069;49.306;8.636;2022-08-21T19:29:46;8.48;;;4.40;;
10059;SDS011;5069;49.306;8.636;2022-08-21T19:32:49;8.50;;;4.50;;
10059;SDS011;5069;49.306;8.636;2022-08-21T19:35:51;13.70;;;4.40;;
10059;SDS011;5069;49.306;8.636;2022-08-21T19:38:53;7.70;;;4.28;;
10059;SDS011;5069;49.306;8.636;2022-08-21T19:41:55;7.72;;;5.07;;
10059;SDS011;5069;49.306;8.636;2022-08-21T19:44:58;9.35;;;5.25;;
10059;SDS011;5069;49.306;8.636;2022-08-21T19:48:00;10.60;;;4.88;;
10059;SDS011;5069;49.306;8.636;2022-08-21T19:51:03;9.93;;;4.57;;
10059;SDS011;5069;49.306;8.636;2022-08-21T19:54:06;9.18;;;4.70;;
10059;SDS011;5069;49.306;8.636;2022-08-21T19:57:17;8.30;;;4.45;;
10059;SDS011;5069;49.306;8.636;2022-08-21T20:00:19;8.85;;;4.35;;
10059;SDS011;5069;49.306;8.636;2022-08-21T20:03:20;8.95;;;4.07;;